createdAt,value
2023-09-30T00:01:11.677Z,6.90
2023-09-30T00:03:45.005Z,6.82
2023-09-30T00:06:18.902Z,7.27
2023-09-30T00:08:53.438Z,7.72
2023-09-30T00:11:26.646Z,6.71
2023-09-30T00:14:02.307Z,6.72
2023-09-30T00:16:36.329Z,6.27
2023-09-30T00:19:10.958Z,5.97
2023-09-30T00:21:44.469Z,6.16
2023-09-30T00:24:19.136Z,6.52
2023-09-30T00:26:52.619Z,6.40
2023-09-30T00:29:25.970Z,7.10
2023-09-30T00:31:59.119Z,8.61
2023-09-30T00:34:35.591Z,7.82
2023-09-30T00:37:11.508Z,7.79
2023-09-30T00:39:46.073Z,7.71
2023-09-30T00:42:22.190Z,8.14
2023-09-30T00:44:55.371Z,7.98
2023-09-30T00:47:28.841Z,8.57
2023-09-30T00:50:02.293Z,8.67
2023-09-30T00:52:36.815Z,8.93
2023-09-30T00:55:12.312Z,9.20
2023-09-30T00:57:46.121Z,9.25
2023-09-30T01:00:21.176Z,9.21
2023-09-30T01:02:54.476Z,8.62
2023-09-30T01:05:27.800Z,8.77
2023-09-30T01:08:04.206Z,8.56
2023-09-30T01:10:38.821Z,8.49
2023-09-30T01:13:13.070Z,9.53
2023-09-30T01:15:46.243Z,9.25
2023-09-30T01:18:19.564Z,9.69
2023-09-30T01:20:56.024Z,9.29
2023-09-30T01:23:30.649Z,9.18
2023-09-30T01:26:07.929Z,10.16
2023-09-30T01:28:42.033Z,10.05
2023-09-30T01:31:16.385Z,10.38
2023-09-30T01:33:49.640Z,9.85
2023-09-30T01:36:22.867Z,9.98
2023-09-30T01:38:57.817Z,8.56
2023-09-30T01:41:30.966Z,9.30
2023-09-30T01:44:04.153Z,9.35
2023-09-30T01:46:37.676Z,10.05
2023-09-30T01:49:11.036Z,9.54
2023-09-30T01:51:44.275Z,10.10
2023-09-30T01:54:18.947Z,9.55
2023-09-30T01:56:52.310Z,9.89
2023-09-30T01:59:26.507Z,9.08
2023-09-30T02:01:59.671Z,9.90
2023-09-30T02:04:33.164Z,9.94
2023-09-30T02:07:06.407Z,10.64
2023-09-30T02:09:41.333Z,10.76
2023-09-30T02:12:14.576Z,10.42
2023-09-30T02:14:48.365Z,9.93
2023-09-30T02:17:21.985Z,10.19
2023-09-30T02:19:56.063Z,11.06
2023-09-30T02:22:29.315Z,10.32
2023-09-30T02:25:08.258Z,10.37
2023-09-30T02:27:42.729Z,10.60
2023-09-30T02:30:17.399Z,9.89
2023-09-30T02:32:50.778Z,10.17
2023-09-30T02:35:25.799Z,10.65
2023-09-30T02:38:00.015Z,10.90
2023-09-30T02:40:34.933Z,10.20
2023-09-30T02:43:10.352Z,10.46
2023-09-30T02:45:43.698Z,10.48
2023-09-30T02:48:17.120Z,9.82
2023-09-30T02:50:50.423Z,9.98
2023-09-30T02:53:23.943Z,10.96
2023-09-30T02:56:01.084Z,11.09
2023-09-30T02:58:35.164Z,11.05
2023-09-30T03:01:11.180Z,11.38
2023-09-30T03:03:47.123Z,11.90
2023-09-30T03:06:20.797Z,11.49
2023-09-30T03:08:54.242Z,10.81
2023-09-30T03:11:31.164Z,10.79
2023-09-30T03:14:04.666Z,10.19
2023-09-30T03:16:39.525Z,10.36
2023-09-30T03:19:12.922Z,9.97
2023-09-30T03:21:46.298Z,9.88
2023-09-30T03:24:22.375Z,10.02
2023-09-30T03:26:56.980Z,9.77
2023-09-30T03:29:30.204Z,9.77
2023-09-30T03:32:03.394Z,9.97
2023-09-30T03:34:38.349Z,9.55
2023-09-30T03:37:11.591Z,9.70
2023-09-30T03:39:44.832Z,10.31
2023-09-30T03:42:19.418Z,10.74
2023-09-30T03:44:52.787Z,9.96
2023-09-30T03:47:25.986Z,10.46
2023-09-30T03:50:00.221Z,10.45
2023-09-30T03:52:35.208Z,10.12
2023-09-30T03:55:08.950Z,9.79
2023-09-30T03:57:44.086Z,10.15
2023-09-30T04:00:21.361Z,10.08
2023-09-30T04:02:56.063Z,10.84
2023-09-30T04:05:33.143Z,10.94
2023-09-30T04:08:06.771Z,10.75
2023-09-30T04:10:40.244Z,10.02
2023-09-30T04:13:14.844Z,10.72
2023-09-30T04:15:50.058Z,11.34
2023-09-30T04:18:23.748Z,11.49
2023-09-30T04:20:57.125Z,12.05
2023-09-30T04:23:30.303Z,12.02
2023-09-30T04:26:03.509Z,12.46
2023-09-30T04:28:38.968Z,12.53
2023-09-30T04:31:13.754Z,12.72
2023-09-30T04:33:47.613Z,12.85
2023-09-30T04:36:20.992Z,11.85
2023-09-30T04:38:54.160Z,12.18
2023-09-30T04:41:27.440Z,11.93
2023-09-30T04:44:01.955Z,12.24
2023-09-30T04:46:35.467Z,12.05
2023-09-30T04:49:10.127Z,11.85
2023-09-30T04:51:43.664Z,11.85
2023-09-30T04:54:16.896Z,12.15
2023-09-30T04:56:52.370Z,12.10
2023-09-30T04:59:27.199Z,13.15
2023-09-30T05:02:01.423Z,12.86
2023-09-30T05:04:34.652Z,12.78
2023-09-30T05:07:08.683Z,12.58
2023-09-30T05:09:42.574Z,12.98
2023-09-30T05:12:17.331Z,12.46
2023-09-30T05:14:52.021Z,12.27
2023-09-30T05:17:25.254Z,12.16
2023-09-30T05:19:59.416Z,12.08
2023-09-30T05:22:32.535Z,12.62
2023-09-30T05:25:06.452Z,12.79
2023-09-30T05:27:39.825Z,12.45
2023-09-30T05:30:16.543Z,12.84
2023-09-30T05:32:49.946Z,12.25
2023-09-30T05:35:23.963Z,12.85
2023-09-30T05:37:57.284Z,12.71
2023-09-30T05:40:31.881Z,12.38
2023-09-30T05:43:06.693Z,12.08
2023-09-30T05:45:50.391Z,12.15
2023-09-30T05:48:23.964Z,13.17
2023-09-30T05:51:00.113Z,12.87
2023-09-30T05:53:34.030Z,13.10
2023-09-30T05:56:07.236Z,14.07
2023-09-30T05:58:40.374Z,14.44
2023-09-30T06:01:15.497Z,13.33
2023-09-30T06:03:52.082Z,13.09
2023-09-30T06:06:27.196Z,13.42
2023-09-30T06:09:00.343Z,13.20
2023-09-30T06:11:33.483Z,12.51
2023-09-30T06:14:07.554Z,11.77
2023-09-30T06:16:42.162Z,11.73
2023-09-30T06:19:15.451Z,11.82
2023-09-30T06:21:48.669Z,12.65
2023-09-30T06:24:22.082Z,12.88
2023-09-30T06:26:55.250Z,13.27
2023-09-30T06:29:28.560Z,13.92
2023-09-30T06:32:05.795Z,14.72
2023-09-30T06:34:38.987Z,14.27
2023-09-30T06:37:12.131Z,14.24
2023-09-30T06:39:45.381Z,14.56
2023-09-30T06:42:18.653Z,14.49
2023-09-30T06:44:51.838Z,15.85
2023-09-30T06:47:26.435Z,16.25
2023-09-30T06:49:59.728Z,16.41
2023-09-30T06:52:32.931Z,16.36
2023-09-30T06:55:07.144Z,15.20
2023-09-30T06:57:41.935Z,15.67
2023-09-30T07:00:17.693Z,15.18
2023-09-30T07:02:52.469Z,14.66
2023-09-30T07:05:25.951Z,14.79
2023-09-30T07:07:59.773Z,14.57
2023-09-30T07:10:32.924Z,14.50
2023-09-30T07:13:07.685Z,13.67
2023-09-30T07:15:41.062Z,14.42
2023-09-30T07:18:15.835Z,14.16
2023-09-30T07:20:49.623Z,13.78
2023-09-30T07:23:23.305Z,13.31
2023-09-30T07:25:56.501Z,13.07
2023-09-30T07:28:29.702Z,13.26
2023-09-30T07:31:03.126Z,13.36
2023-09-30T07:33:37.773Z,13.40
2023-09-30T07:36:10.999Z,13.40
2023-09-30T07:38:44.132Z,13.26
2023-09-30T07:41:18.863Z,13.16
2023-09-30T07:43:52.098Z,13.17
2023-09-30T07:46:25.323Z,12.66
2023-09-30T07:49:00.687Z,12.29
2023-09-30T07:51:34.295Z,12.12
2023-09-30T07:54:23.964Z,11.38
2023-09-30T07:57:01.522Z,10.96
2023-09-30T07:59:35.414Z,10.37
2023-09-30T08:02:09.759Z,10.67
2023-09-30T08:04:44.460Z,10.39
2023-09-30T08:07:17.836Z,9.70
2023-09-30T08:09:51.455Z,9.19
2023-09-30T08:12:25.052Z,9.52
2023-09-30T08:14:59.037Z,8.69
2023-09-30T08:17:32.244Z,8.68
2023-09-30T08:20:09.690Z,8.52
2023-09-30T08:22:43.157Z,8.19
2023-09-30T08:25:16.448Z,7.60
2023-09-30T08:27:51.011Z,7.26
2023-09-30T08:30:24.454Z,6.85
2023-09-30T08:32:57.720Z,7.08
2023-09-30T08:35:32.892Z,6.71
2023-09-30T08:38:06.602Z,7.20
2023-09-30T08:40:41.001Z,7.07
2023-09-30T08:43:14.260Z,6.84
2023-09-30T08:45:53.264Z,6.66
2023-09-30T08:48:28.773Z,6.41
2023-09-30T08:51:04.515Z,6.77
2023-09-30T08:53:37.912Z,6.39
2023-09-30T08:56:13.313Z,6.41
2023-09-30T08:58:47.621Z,6.63
2023-09-30T09:01:21.429Z,6.29
2023-09-30T09:03:55.038Z,6.14
2023-09-30T09:06:29.643Z,5.98
2023-09-30T09:09:16.353Z,6.06
2023-09-30T09:11:49.573Z,5.98
2023-09-30T09:14:39.477Z,6.55
2023-09-30T09:17:15.162Z,5.81
2023-09-30T09:20:02.560Z,6.28
2023-09-30T09:22:45.080Z,6.27
2023-09-30T09:25:18.244Z,5.79
2023-09-30T09:27:52.476Z,5.86
2023-09-30T09:30:28.004Z,5.29
2023-09-30T09:33:02.926Z,6.16
2023-09-30T09:35:37.461Z,5.59
2023-09-30T09:38:11.996Z,5.33
2023-09-30T09:40:45.283Z,5.25
2023-09-30T09:43:19.417Z,5.00
2023-09-30T09:45:54.201Z,4.78
2023-09-30T09:48:27.623Z,5.13
2023-09-30T09:51:01.943Z,5.26
2023-09-30T09:53:40.476Z,4.78
2023-09-30T09:56:14.314Z,4.46
2023-09-30T09:58:50.536Z,4.07
2023-09-30T10:01:24.191Z,4.00
2023-09-30T10:04:00.296Z,4.35
2023-09-30T10:06:39.830Z,4.58
2023-09-30T10:09:17.661Z,4.15
2023-09-30T10:11:51.788Z,4.11
2023-09-30T10:14:34.103Z,4.14
2023-09-30T10:17:07.409Z,4.08
2023-09-30T10:20:10.790Z,4.83
2023-09-30T10:22:45.577Z,4.69
2023-09-30T10:25:40.326Z,4.70
2023-09-30T10:28:36.033Z,4.42
2023-09-30T10:31:14.467Z,5.13
2023-09-30T10:34:23.886Z,4.99
2023-09-30T10:36:57.081Z,4.99
2023-09-30T10:39:55.462Z,5.40
2023-09-30T10:42:50.884Z,5.06
2023-09-30T10:45:48.068Z,4.95
2023-09-30T10:48:41.658Z,5.54
2023-09-30T10:51:17.262Z,5.33
2023-09-30T10:53:53.659Z,5.30
2023-09-30T10:56:35.118Z,4.71
2023-09-30T10:59:10.597Z,4.95
2023-09-30T11:01:43.914Z,4.76
2023-09-30T11:04:17.442Z,5.06
2023-09-30T11:06:52.759Z,5.01
2023-09-30T11:09:26.033Z,5.27
2023-09-30T11:11:59.313Z,5.32
2023-09-30T11:14:34.135Z,4.90
2023-09-30T11:17:07.309Z,5.05
2023-09-30T11:19:50.323Z,4.43
2023-09-30T11:22:23.910Z,4.58
2023-09-30T11:24:57.824Z,4.40
2023-09-30T11:27:32.482Z,4.45
2023-09-30T11:30:09.621Z,4.43
2023-09-30T11:32:43.755Z,4.31
2023-09-30T11:35:25.316Z,5.01
2023-09-30T11:37:58.557Z,5.10
2023-09-30T11:40:31.747Z,5.12
2023-09-30T11:43:13.164Z,4.59
2023-09-30T11:45:48.883Z,4.74
2023-09-30T11:48:22.623Z,4.79
2023-09-30T11:50:56.485Z,4.68
2023-09-30T11:53:31.458Z,5.05
2023-09-30T11:56:04.836Z,5.03
2023-09-30T11:58:37.961Z,4.74
2023-09-30T12:01:14.965Z,4.78
2023-09-30T12:03:48.733Z,5.16
2023-09-30T12:06:22.461Z,5.27
2023-09-30T12:08:55.621Z,4.95
2023-09-30T12:11:30.481Z,5.03
2023-09-30T12:14:03.825Z,4.53
2023-09-30T12:16:38.427Z,5.07
2023-09-30T12:19:11.809Z,4.97
2023-09-30T12:21:47.625Z,4.99
2023-09-30T12:24:23.231Z,5.00
2023-09-30T12:26:57.071Z,5.14
2023-09-30T12:29:30.494Z,5.34
2023-09-30T12:32:06.614Z,5.61
2023-09-30T12:34:40.015Z,5.68
2023-09-30T12:37:14.550Z,5.63
2023-09-30T12:39:48.934Z,5.44
2023-09-30T12:42:22.081Z,6.17
2023-09-30T12:44:55.273Z,5.57
2023-09-30T12:47:29.895Z,5.13
2023-09-30T12:50:03.065Z,5.12
2023-09-30T12:52:36.286Z,5.16
2023-09-30T12:55:10.437Z,5.62
2023-09-30T12:57:43.657Z,5.54
2023-09-30T13:00:20.145Z,5.75
2023-09-30T13:02:55.166Z,5.55
2023-09-30T13:05:29.496Z,5.22
2023-09-30T13:08:03.943Z,5.39
2023-09-30T13:10:38.990Z,5.51
2023-09-30T13:13:12.189Z,5.08
2023-09-30T13:15:45.722Z,5.00
2023-09-30T13:18:22.506Z,5.29
2023-09-30T13:20:55.943Z,4.98
2023-09-30T13:23:29.059Z,5.31
2023-09-30T13:26:02.394Z,5.18
2023-09-30T13:28:35.954Z,5.38
2023-09-30T13:31:09.147Z,5.47
2023-09-30T13:33:43.802Z,5.20
2023-09-30T13:36:17.037Z,5.46
2023-09-30T13:38:50.949Z,5.56
2023-09-30T13:41:24.182Z,5.76
2023-09-30T13:43:57.412Z,5.63
2023-09-30T13:46:31.940Z,5.03
2023-09-30T13:49:06.631Z,5.52
2023-09-30T13:51:40.871Z,5.06
2023-09-30T13:54:15.714Z,5.57
2023-09-30T13:56:49.023Z,5.37
2023-09-30T13:59:22.158Z,5.17
2023-09-30T14:01:55.413Z,5.62
2023-09-30T14:04:32.937Z,5.38
2023-09-30T14:07:09.147Z,5.28
2023-09-30T14:09:42.518Z,5.47
2023-09-30T14:12:15.889Z,5.65
2023-09-30T14:14:52.601Z,5.39
2023-09-30T14:17:29.219Z,5.58
2023-09-30T14:20:07.399Z,5.29
2023-09-30T14:22:40.798Z,5.29
2023-09-30T14:25:13.897Z,6.09
2023-09-30T14:27:47.908Z,6.15
2023-09-30T14:30:22.143Z,5.66
2023-09-30T14:32:56.115Z,5.80
2023-09-30T14:35:31.276Z,5.91
2023-09-30T14:38:06.020Z,5.25
2023-09-30T14:40:40.685Z,5.44
2023-09-30T14:43:14.061Z,5.35
2023-09-30T14:45:47.262Z,5.22
2023-09-30T14:48:20.490Z,5.40
2023-09-30T14:50:55.075Z,5.73
2023-09-30T14:53:28.252Z,5.66
2023-09-30T14:56:02.042Z,5.71
2023-09-30T14:58:35.283Z,5.76
2023-09-30T15:01:10.747Z,5.66
2023-09-30T15:03:45.281Z,6.12
2023-09-30T15:06:20.102Z,6.05
2023-09-30T15:08:57.596Z,5.83
2023-09-30T15:11:30.969Z,5.53
2023-09-30T15:14:07.464Z,5.55
2023-09-30T15:16:40.790Z,4.97
2023-09-30T15:19:14.178Z,5.03
2023-09-30T15:21:48.750Z,4.55
2023-09-30T15:24:22.052Z,4.68
2023-09-30T15:26:55.796Z,5.23
2023-09-30T15:29:29.350Z,4.62
2023-09-30T15:32:04.013Z,4.71
2023-09-30T15:34:39.390Z,4.85
2023-09-30T15:37:13.911Z,5.03
2023-09-30T15:39:48.196Z,5.75
2023-09-30T15:42:21.485Z,5.97
2023-09-30T15:44:57.300Z,5.62
2023-09-30T15:47:30.530Z,5.62
2023-09-30T15:50:04.470Z,5.44
2023-09-30T15:52:39.107Z,5.87
2023-09-30T15:55:12.419Z,5.37
2023-09-30T15:57:45.652Z,5.29
2023-09-30T16:00:21.275Z,5.38
2023-09-30T16:02:54.514Z,5.36
2023-09-30T16:05:27.852Z,5.95
2023-09-30T16:08:02.797Z,5.51
2023-09-30T16:10:36.714Z,5.26
2023-09-30T16:13:10.762Z,5.24
2023-09-30T16:15:44.851Z,5.08
2023-09-30T16:18:18.056Z,5.11
2023-09-30T16:20:51.532Z,5.19
2023-09-30T16:23:26.108Z,5.70
2023-09-30T16:25:59.250Z,6.01
2023-09-30T16:28:32.580Z,5.30
2023-09-30T16:31:08.319Z,5.13
2023-09-30T16:33:43.147Z,5.24
2023-09-30T16:36:18.654Z,4.93
2023-09-30T16:38:53.568Z,5.50
2023-09-30T16:41:26.696Z,5.26
2023-09-30T16:44:00.117Z,5.05
2023-09-30T16:46:33.411Z,5.27
2023-09-30T16:49:07.018Z,5.53
2023-09-30T16:51:40.357Z,5.35
2023-09-30T16:54:14.954Z,5.76
2023-09-30T16:56:48.075Z,5.30
2023-09-30T16:59:21.249Z,5.09
2023-09-30T17:01:55.900Z,5.57
2023-09-30T17:04:29.435Z,5.09
2023-09-30T17:07:02.839Z,5.35
2023-09-30T17:09:37.883Z,5.06
2023-09-30T17:12:11.129Z,5.89
2023-09-30T17:14:44.379Z,5.93
2023-09-30T17:17:17.939Z,5.83
2023-09-30T17:19:51.184Z,6.17
2023-09-30T17:22:24.316Z,6.33
2023-09-30T17:24:59.288Z,5.95
2023-09-30T17:27:32.583Z,6.22
2023-09-30T17:30:06.620Z,6.17
2023-09-30T17:32:40.588Z,5.78
2023-09-30T17:35:13.857Z,5.72
2023-09-30T17:37:48.539Z,6.14
2023-09-30T17:40:23.733Z,6.18
2023-09-30T17:42:57.090Z,6.28
2023-09-30T17:45:30.357Z,6.10
2023-09-30T17:48:03.607Z,6.24
2023-09-30T17:50:37.147Z,6.43
2023-09-30T17:53:10.714Z,6.02
2023-09-30T17:55:45.235Z,6.22
2023-09-30T17:58:18.378Z,6.27
2023-09-30T18:00:54.467Z,6.48
2023-09-30T18:03:28.586Z,6.20
2023-09-30T18:06:07.133Z,6.47
2023-09-30T18:08:40.978Z,6.99
2023-09-30T18:11:16.118Z,8.27
2023-09-30T18:13:50.989Z,7.96
2023-09-30T18:16:25.668Z,7.02
2023-09-30T18:18:58.986Z,6.93
2023-09-30T18:21:32.167Z,6.94
2023-09-30T18:24:06.098Z,6.02
2023-09-30T18:26:40.687Z,6.73
2023-09-30T18:29:13.786Z,7.00
2023-09-30T18:31:46.934Z,7.04
2023-09-30T18:34:20.118Z,7.09
2023-09-30T18:36:53.349Z,7.17
2023-09-30T18:39:27.047Z,7.02
2023-09-30T18:42:01.714Z,6.89
2023-09-30T18:44:36.500Z,7.20
2023-09-30T18:47:09.834Z,7.33
2023-09-30T18:49:42.965Z,7.84
2023-09-30T18:52:16.205Z,7.85
2023-09-30T18:54:49.412Z,9.36
2023-09-30T18:57:24.283Z,8.56
2023-09-30T18:59:57.447Z,7.21
2023-09-30T19:02:30.669Z,7.54
2023-09-30T19:05:03.827Z,7.89
2023-09-30T19:07:37.329Z,7.74
2023-09-30T19:10:11.210Z,7.33
2023-09-30T19:12:45.773Z,7.09
2023-09-30T19:15:19.521Z,7.23
2023-09-30T19:17:52.823Z,7.11
2023-09-30T19:20:26.011Z,7.36
2023-09-30T19:22:59.418Z,7.20
2023-09-30T19:25:33.280Z,7.88
2023-09-30T19:28:08.012Z,7.64
2023-09-30T19:30:41.375Z,6.90
2023-09-30T19:33:16.914Z,7.40
2023-09-30T19:35:50.665Z,7.29
2023-09-30T19:38:23.844Z,7.71
2023-09-30T19:40:56.953Z,6.84
2023-09-30T19:43:34.593Z,7.11
2023-09-30T19:46:07.976Z,7.04
2023-09-30T19:48:41.712Z,7.08
2023-09-30T19:51:24.308Z,7.76
2023-09-30T19:53:57.478Z,8.23
2023-09-30T19:56:30.693Z,7.71
2023-09-30T19:59:05.354Z,7.77
2023-09-30T20:01:39.536Z,8.36
2023-09-30T20:04:13.017Z,8.07
2023-09-30T20:06:49.665Z,7.97
2023-09-30T20:09:23.778Z,8.09
2023-09-30T20:12:03.142Z,7.90
2023-09-30T20:14:38.073Z,8.07
2023-09-30T20:17:12.346Z,8.59
2023-09-30T20:19:46.111Z,7.90
2023-09-30T20:22:20.551Z,8.01
2023-09-30T20:24:56.478Z,7.66
2023-09-30T20:27:30.786Z,8.09
2023-09-30T20:30:06.559Z,9.25
2023-09-30T20:32:39.821Z,9.69
2023-09-30T20:35:13.034Z,9.49
2023-09-30T20:37:46.212Z,8.84
2023-09-30T20:40:19.434Z,8.65
2023-09-30T20:42:52.703Z,7.92
2023-09-30T20:45:27.206Z,8.19
2023-09-30T20:48:01.830Z,8.03
2023-09-30T20:50:35.414Z,8.27
2023-09-30T20:53:09.025Z,8.20
2023-09-30T20:55:42.619Z,7.66
2023-09-30T20:58:15.762Z,7.96
2023-09-30T21:00:50.364Z,8.33
2023-09-30T21:03:23.775Z,9.12
2023-09-30T21:05:57.025Z,8.53
2023-09-30T21:08:30.786Z,9.30
2023-09-30T21:11:03.984Z,9.31
2023-09-30T21:13:37.685Z,9.96
2023-09-30T21:16:14.693Z,9.24
2023-09-30T21:18:48.033Z,9.54
2023-09-30T21:21:21.428Z,8.98
2023-09-30T21:23:54.772Z,9.27
2023-09-30T21:26:28.011Z,9.26
2023-09-30T21:29:01.171Z,10.36
2023-09-30T21:31:35.759Z,9.94
2023-09-30T21:34:09.780Z,9.87
2023-09-30T21:36:43.240Z,9.62
2023-09-30T21:39:16.952Z,9.74
2023-09-30T21:41:50.135Z,9.42
2023-09-30T21:44:23.265Z,9.46
2023-09-30T21:46:57.783Z,9.45
2023-09-30T21:49:31.092Z,9.91
2023-09-30T21:52:05.224Z,10.27
2023-09-30T21:54:38.387Z,10.24
2023-09-30T21:57:11.492Z,10.29
2023-09-30T21:59:44.753Z,10.84
2023-09-30T22:02:19.300Z,10.89
2023-09-30T22:04:53.046Z,10.65
2023-09-30T22:07:27.017Z,11.03
2023-09-30T22:10:00.370Z,11.09
2023-09-30T22:12:33.687Z,10.17
2023-09-30T22:15:07.683Z,10.51
2023-09-30T22:17:43.458Z,10.45
2023-09-30T22:20:16.843Z,10.59
2023-09-30T22:22:51.957Z,10.67
2023-09-30T22:25:25.231Z,10.84
2023-09-30T22:27:58.606Z,10.64
2023-09-30T22:30:33.168Z,10.72
2023-09-30T22:33:08.096Z,10.46
2023-09-30T22:35:42.256Z,10.61
2023-09-30T22:38:15.649Z,10.60
2023-09-30T22:40:48.931Z,10.52
2023-09-30T22:43:22.339Z,10.58
2023-09-30T22:45:55.748Z,10.67
2023-09-30T22:48:30.378Z,10.35
2023-09-30T22:51:03.832Z,9.69
2023-09-30T22:53:37.568Z,10.05
2023-09-30T22:56:10.735Z,10.85
2023-09-30T22:58:44.037Z,9.95
2023-09-30T23:01:23.316Z,10.01
2023-09-30T23:03:59.643Z,9.53
2023-09-30T23:06:34.012Z,9.64
2023-09-30T23:09:08.631Z,10.12
2023-09-30T23:11:42.072Z,9.77
2023-09-30T23:14:15.320Z,9.37
2023-09-30T23:16:49.293Z,9.69
2023-09-30T23:19:24.086Z,9.99
2023-09-30T23:21:57.376Z,9.10
2023-09-30T23:24:30.775Z,8.91
2023-09-30T23:27:08.706Z,8.89
2023-09-30T23:29:42.082Z,8.98
2023-09-30T23:32:17.468Z,9.35
2023-09-30T23:34:52.122Z,9.62
2023-09-30T23:37:26.438Z,9.71
2023-09-30T23:39:59.659Z,9.68
2023-09-30T23:42:33.562Z,9.47
2023-09-30T23:45:13.106Z,9.47
2023-09-30T23:47:51.487Z,9.48
2023-09-30T23:50:27.353Z,9.63
2023-09-30T23:53:00.518Z,9.42
2023-09-30T23:55:36.338Z,8.73
2023-09-30T23:58:11.523Z,9.47
